sensor_id;sensor_type;location;lat;lon;timestamp;P1;durP1;ratioP1;P2;durP2;ratioP2
11865;SDS011;5992;52.744;6.898;2023-05-14T00:01:16;6.40;;;4.00;;
11865;SDS011;5992;52.744;6.898;2023-05-14T00:04:34;5.70;;;4.33;;
11865;SDS011;5992;52.744;6.898;2023-05-14T00:07:52;7.70;;;4.35;;
11865;SDS011;5992;52.744;6.898;2023-05-14T00:11:09;5.40;;;4.30;;
11865;SDS011;5992;52.744;6.898;2023-05-14T00:14:25;7.50;;;4.63;;
11865;SDS011;5992;52.744;6.898;2023-05-14T00:17:44;4.97;;;4.13;;
11865;SDS011;5992;52.744;6.898;2023-05-14T00:20:50;4.83;;;4.43;;
11865;SDS011;5992;52.744;6.898;2023-05-14T00:24:23;6.70;;;4.35;;
11865;SDS011;5992;52.744;6.898;2023-05-14T00:27:39;4.35;;;3.90;;
11865;SDS011;5992;52.744;6.898;2023-05-14T00:30:58;6.55;;;4.30;;
11865;SDS011;5992;52.744;6.898;2023-05-14T00:34:02;7.40;;;4.20;;
11865;SDS011;5992;52.744;6.898;2023-05-14T00:37:21;5.20;;;4.65;;
11865;SDS011;5992;52.744;6.898;2023-05-14T00:40:39;5.75;;;4.40;;
11865;SDS011;5992;52.744;6.898;2023-05-14T00:43:55;5.67;;;3.83;;
11865;SDS011;5992;52.744;6.898;2023-05-14T00:46:59;6.65;;;4.30;;
11865;SDS011;5992;52.744;6.898;2023-05-14T00:50:30;6.53;;;4.33;;
11865;SDS011;5992;52.744;6.898;2023-05-14T00:53:48;5.27;;;4.30;;
11865;SDS011;5992;52.744;6.898;2023-05-14T00:57:22;5.70;;;3.90;;
11865;SDS011;5992;52.744;6.898;2023-05-14T01:00:25;4.57;;;3.90;;
11865;SDS011;5992;52.744;6.898;2023-05-14T01:03:41;5.00;;;4.10;;
11865;SDS011;5992;52.744;6.898;2023-05-14T01:07:03;5.40;;;4.05;;
11865;SDS011;5992;52.744;6.898;2023-05-14T01:10:34;6.45;;;4.30;;
11865;SDS011;5992;52.744;6.898;2023-05-14T01:13:49;5.70;;;4.40;;
11865;SDS011;5992;52.744;6.898;2023-05-14T01:17:19;5.10;;;3.95;;
11865;SDS011;5992;52.744;6.898;2023-05-14T01:20:35;7.70;;;4.10;;
11865;SDS011;5992;52.744;6.898;2023-05-14T01:24:05;5.95;;;4.05;;
11865;SDS011;5992;52.744;6.898;2023-05-14T01:27:22;5.40;;;4.30;;
11865;SDS011;5992;52.744;6.898;2023-05-14T01:30:52;4.80;;;3.95;;
11865;SDS011;5992;52.744;6.898;2023-05-14T01:34:08;4.15;;;3.35;;
11865;SDS011;5992;52.744;6.898;2023-05-14T01:37:36;5.93;;;4.90;;
11865;SDS011;5992;52.744;6.898;2023-05-14T01:40:53;6.55;;;4.20;;
11865;SDS011;5992;52.744;6.898;2023-05-14T01:44:24;5.55;;;3.90;;
11865;SDS011;5992;52.744;6.898;2023-05-14T01:47:52;4.83;;;3.53;;
11865;SDS011;5992;52.744;6.898;2023-05-14T01:51:26;7.57;;;4.57;;
11865;SDS011;5992;52.744;6.898;2023-05-14T01:54:30;5.83;;;4.13;;
11865;SDS011;5992;52.744;6.898;2023-05-14T01:57:50;4.27;;;3.87;;
11865;SDS011;5992;52.744;6.898;2023-05-14T02:01:06;7.70;;;4.53;;
11865;SDS011;5992;52.744;6.898;2023-05-14T02:04:25;4.30;;;3.80;;
11865;SDS011;5992;52.744;6.898;2023-05-14T02:07:29;5.85;;;4.00;;
11865;SDS011;5992;52.744;6.898;2023-05-14T02:10:48;7.43;;;4.00;;
11865;SDS011;5992;52.744;6.898;2023-05-14T02:14:08;5.70;;;4.20;;
11865;SDS011;5992;52.744;6.898;2023-05-14T02:17:27;7.60;;;4.10;;
11865;SDS011;5992;52.744;6.898;2023-05-14T02:20:46;7.37;;;3.90;;
11865;SDS011;5992;52.744;6.898;2023-05-14T02:23:50;6.37;;;4.60;;
11865;SDS011;5992;52.744;6.898;2023-05-14T02:27:09;4.47;;;4.07;;
11865;SDS011;5992;52.744;6.898;2023-05-14T02:30:14;5.80;;;4.25;;
11865;SDS011;5992;52.744;6.898;2023-05-14T02:33:48;5.80;;;4.10;;
11865;SDS011;5992;52.744;6.898;2023-05-14T02:36:52;8.75;;;4.60;;
11865;SDS011;5992;52.744;6.898;2023-05-14T02:40:11;8.65;;;4.45;;
11865;SDS011;5992;52.744;6.898;2023-05-14T02:43:15;7.70;;;4.95;;
11865;SDS011;5992;52.744;6.898;2023-05-14T02:46:35;6.27;;;4.90;;
11865;SDS011;5992;52.744;6.898;2023-05-14T02:50:08;8.20;;;4.77;;
11865;SDS011;5992;52.744;6.898;2023-05-14T02:53:36;6.93;;;4.43;;
11865;SDS011;5992;52.744;6.898;2023-05-14T02:56:52;6.77;;;5.03;;
11865;SDS011;5992;52.744;6.898;2023-05-14T03:00:08;6.85;;;5.10;;
11865;SDS011;5992;52.744;6.898;2023-05-14T03:03:38;6.00;;;5.40;;
11865;SDS011;5992;52.744;6.898;2023-05-14T03:07:09;10.90;;;5.17;;
11865;SDS011;5992;52.744;6.898;2023-05-14T03:10:13;7.93;;;4.70;;
11865;SDS011;5992;52.744;6.898;2023-05-14T03:13:33;6.47;;;4.93;;
11865;SDS011;5992;52.744;6.898;2023-05-14T03:16:37;7.83;;;5.20;;
11865;SDS011;5992;52.744;6.898;2023-05-14T03:19:59;5.35;;;4.70;;
11865;SDS011;5992;52.744;6.898;2023-05-14T03:23:18;7.55;;;5.05;;
11865;SDS011;5992;52.744;6.898;2023-05-14T03:26:37;5.00;;;4.50;;
11865;SDS011;5992;52.744;6.898;2023-05-14T03:29:41;6.50;;;5.47;;
11865;SDS011;5992;52.744;6.898;2023-05-14T03:33:00;5.87;;;4.70;;
11865;SDS011;5992;52.744;6.898;2023-05-14T03:36:18;6.33;;;5.27;;
11865;SDS011;5992;52.744;6.898;2023-05-14T03:39:49;5.45;;;4.95;;
11865;SDS011;5992;52.744;6.898;2023-05-14T03:42:53;6.75;;;5.85;;
11865;SDS011;5992;52.744;6.898;2023-05-14T03:46:09;6.37;;;4.97;;
11865;SDS011;5992;52.744;6.898;2023-05-14T03:49:28;7.40;;;5.40;;
11865;SDS011;5992;52.744;6.898;2023-05-14T03:52:46;5.80;;;5.20;;
11865;SDS011;5992;52.744;6.898;2023-05-14T03:56:04;6.30;;;4.60;;
11865;SDS011;5992;52.744;6.898;2023-05-14T03:59:23;6.05;;;5.15;;
11865;SDS011;5992;52.744;6.898;2023-05-14T04:02:39;11.87;;;6.47;;
11865;SDS011;5992;52.744;6.898;2023-05-14T04:06:13;6.40;;;5.20;;
11865;SDS011;5992;52.744;6.898;2023-05-14T04:09:19;6.43;;;5.83;;
11865;SDS011;5992;52.744;6.898;2023-05-14T04:12:48;7.00;;;5.13;;
11865;SDS011;5992;52.744;6.898;2023-05-14T04:16:04;7.65;;;5.70;;
11865;SDS011;5992;52.744;6.898;2023-05-14T04:19:23;6.40;;;5.47;;
11865;SDS011;5992;52.744;6.898;2023-05-14T04:22:27;5.73;;;5.07;;
11865;SDS011;5992;52.744;6.898;2023-05-14T04:26:00;9.70;;;5.35;;
11865;SDS011;5992;52.744;6.898;2023-05-14T04:29:18;7.10;;;5.30;;
11865;SDS011;5992;52.744;6.898;2023-05-14T04:32:34;6.77;;;5.27;;
11865;SDS011;5992;52.744;6.898;2023-05-14T04:35:38;7.55;;;5.25;;
11865;SDS011;5992;52.744;6.898;2023-05-14T04:38:54;6.67;;;4.80;;
11865;SDS011;5992;52.744;6.898;2023-05-14T04:42:00;8.80;;;4.85;;
11865;SDS011;5992;52.744;6.898;2023-05-14T04:45:33;8.30;;;5.10;;
11865;SDS011;5992;52.744;6.898;2023-05-14T04:48:37;5.73;;;4.90;;
11865;SDS011;5992;52.744;6.898;2023-05-14T04:51:53;7.00;;;5.67;;
11865;SDS011;5992;52.744;6.898;2023-05-14T04:54:57;6.80;;;5.87;;
11865;SDS011;5992;52.744;6.898;2023-05-14T04:58:18;5.40;;;4.90;;
11865;SDS011;5992;52.744;6.898;2023-05-14T05:01:36;7.45;;;5.80;;
11865;SDS011;5992;52.744;6.898;2023-05-14T05:04:55;8.60;;;5.80;;
11865;SDS011;5992;52.744;6.898;2023-05-14T05:07:59;7.80;;;6.10;;
11865;SDS011;5992;52.744;6.898;2023-05-14T05:11:15;6.97;;;5.97;;
11865;SDS011;5992;52.744;6.898;2023-05-14T05:14:21;8.00;;;6.60;;
11865;SDS011;5992;52.744;6.898;2023-05-14T05:17:51;8.30;;;5.67;;
11865;SDS011;5992;52.744;6.898;2023-05-14T05:20:55;6.00;;;5.40;;
11865;SDS011;5992;52.744;6.898;2023-05-14T05:24:14;9.83;;;5.63;;
11865;SDS011;5992;52.744;6.898;2023-05-14T05:27:18;8.80;;;6.67;;
11865;SDS011;5992;52.744;6.898;2023-05-14T05:30:39;7.00;;;5.77;;
11865;SDS011;5992;52.744;6.898;2023-05-14T05:33:57;8.07;;;6.67;;
11865;SDS011;5992;52.744;6.898;2023-05-14T05:37:29;7.67;;;5.97;;
11865;SDS011;5992;52.744;6.898;2023-05-14T05:40:44;8.45;;;6.15;;
11865;SDS011;5992;52.744;6.898;2023-05-14T05:44:00;7.63;;;5.90;;
11865;SDS011;5992;52.744;6.898;2023-05-14T05:47:07;8.05;;;5.90;;
11865;SDS011;5992;52.744;6.898;2023-05-14T05:50:37;5.97;;;4.83;;
11865;SDS011;5992;52.744;6.898;2023-05-14T05:53:41;8.33;;;5.57;;
11865;SDS011;5992;52.744;6.898;2023-05-14T05:57:00;9.55;;;7.20;;
11865;SDS011;5992;52.744;6.898;2023-05-14T06:00:05;8.60;;;6.20;;
11865;SDS011;5992;52.744;6.898;2023-05-14T06:03:31;6.03;;;5.00;;
11865;SDS011;5992;52.744;6.898;2023-05-14T06:06:46;6.10;;;4.95;;
11865;SDS011;5992;52.744;6.898;2023-05-14T06:10:02;5.53;;;4.90;;
11865;SDS011;5992;52.744;6.898;2023-05-14T06:13:18;7.05;;;5.70;;
11865;SDS011;5992;52.744;6.898;2023-05-14T06:16:37;7.47;;;5.40;;
11865;SDS011;5992;52.744;6.898;2023-05-14T06:19:43;8.00;;;5.05;;
11865;SDS011;5992;52.744;6.898;2023-05-14T06:23:16;7.15;;;5.20;;
11865;SDS011;5992;52.744;6.898;2023-05-14T06:26:20;6.60;;;6.00;;
11865;SDS011;5992;52.744;6.898;2023-05-14T06:29:39;6.87;;;4.80;;
11865;SDS011;5992;52.744;6.898;2023-05-14T06:32:46;5.60;;;5.07;;
11865;SDS011;5992;52.744;6.898;2023-05-14T06:36:05;6.20;;;5.53;;
11865;SDS011;5992;52.744;6.898;2023-05-14T06:39:21;5.50;;;5.00;;
11865;SDS011;5992;52.744;6.898;2023-05-14T06:42:42;5.80;;;5.30;;
11865;SDS011;5992;52.744;6.898;2023-05-14T06:45:47;10.50;;;6.87;;
11865;SDS011;5992;52.744;6.898;2023-05-14T06:49:17;8.40;;;6.57;;
11865;SDS011;5992;52.744;6.898;2023-05-14T06:52:35;7.30;;;5.55;;
11865;SDS011;5992;52.744;6.898;2023-05-14T06:56:09;8.97;;;6.10;;
11865;SDS011;5992;52.744;6.898;2023-05-14T06:59:13;8.80;;;6.13;;
11865;SDS011;5992;52.744;6.898;2023-05-14T07:02:32;8.90;;;5.80;;
11865;SDS011;5992;52.744;6.898;2023-05-14T07:05:36;6.53;;;5.73;;
11865;SDS011;5992;52.744;6.898;2023-05-14T07:08:53;6.93;;;5.77;;
11865;SDS011;5992;52.744;6.898;2023-05-14T07:12:09;10.17;;;7.57;;
11865;SDS011;5992;52.744;6.898;2023-05-14T07:15:28;8.40;;;6.50;;
11865;SDS011;5992;52.744;6.898;2023-05-14T07:18:32;11.17;;;7.53;;
11865;SDS011;5992;52.744;6.898;2023-05-14T07:21:49;9.93;;;6.43;;
11865;SDS011;5992;52.744;6.898;2023-05-14T07:24:54;8.50;;;6.70;;
11865;SDS011;5992;52.744;6.898;2023-05-14T07:28:27;9.20;;;6.55;;
11865;SDS011;5992;52.744;6.898;2023-05-14T07:31:46;9.60;;;6.25;;
11865;SDS011;5992;52.744;6.898;2023-05-14T07:35:06;5.70;;;5.20;;
11865;SDS011;5992;52.744;6.898;2023-05-14T07:38:11;8.80;;;6.60;;
11865;SDS011;5992;52.744;6.898;2023-05-14T07:41:45;8.13;;;5.50;;
11865;SDS011;5992;52.744;6.898;2023-05-14T07:45:04;9.57;;;6.33;;
11865;SDS011;5992;52.744;6.898;2023-05-14T07:48:33;6.13;;;5.53;;
11865;SDS011;5992;52.744;6.898;2023-05-14T07:51:49;8.27;;;6.63;;
11865;SDS011;5992;52.744;6.898;2023-05-14T07:55:08;9.50;;;5.73;;
11865;SDS011;5992;52.744;6.898;2023-05-14T07:58:27;7.43;;;6.63;;
11865;SDS011;5992;52.744;6.898;2023-05-14T08:01:58;7.20;;;6.37;;
11865;SDS011;5992;52.744;6.898;2023-05-14T08:05:14;8.93;;;6.93;;
11865;SDS011;5992;52.744;6.898;2023-05-14T08:08:21;9.90;;;6.27;;
11865;SDS011;5992;52.744;6.898;2023-05-14T08:11:38;7.70;;;6.77;;
11865;SDS011;5992;52.744;6.898;2023-05-14T08:14:46;8.10;;;6.10;;
11865;SDS011;5992;52.744;6.898;2023-05-14T08:18:14;7.00;;;6.40;;
11865;SDS011;5992;52.744;6.898;2023-05-14T08:21:18;9.00;;;6.57;;
11865;SDS011;5992;52.744;6.898;2023-05-14T08:24:34;7.50;;;6.47;;
11865;SDS011;5992;52.744;6.898;2023-05-14T08:27:38;6.93;;;6.10;;
11865;SDS011;5992;52.744;6.898;2023-05-14T08:31:10;6.40;;;5.70;;
11865;SDS011;5992;52.744;6.898;2023-05-14T08:34:29;6.30;;;5.70;;
11865;SDS011;5992;52.744;6.898;2023-05-14T08:37:57;8.37;;;5.93;;
11865;SDS011;5992;52.744;6.898;2023-05-14T08:41:01;7.10;;;6.07;;
11865;SDS011;5992;52.744;6.898;2023-05-14T08:44:35;12.30;;;6.60;;
11865;SDS011;5992;52.744;6.898;2023-05-14T08:47:52;14.00;;;6.20;;
11865;SDS011;5992;52.744;6.898;2023-05-14T08:51:23;7.17;;;6.30;;
11865;SDS011;5992;52.744;6.898;2023-05-14T08:54:40;8.73;;;6.10;;
11865;SDS011;5992;52.744;6.898;2023-05-14T08:57:59;9.07;;;6.07;;
11865;SDS011;5992;52.744;6.898;2023-05-14T09:01:03;8.25;;;6.25;;
11865;SDS011;5992;52.744;6.898;2023-05-14T09:04:22;8.53;;;6.03;;
11865;SDS011;5992;52.744;6.898;2023-05-14T09:07:37;11.97;;;6.03;;
11865;SDS011;5992;52.744;6.898;2023-05-14T09:11:08;11.43;;;6.10;;
11865;SDS011;5992;52.744;6.898;2023-05-14T09:14:12;8.33;;;6.30;;
11865;SDS011;5992;52.744;6.898;2023-05-14T09:17:31;5.93;;;5.07;;
11865;SDS011;5992;52.744;6.898;2023-05-14T09:20:49;14.65;;;6.50;;
11865;SDS011;5992;52.744;6.898;2023-05-14T09:24:19;11.30;;;6.17;;
11865;SDS011;5992;52.744;6.898;2023-05-14T09:27:35;9.77;;;5.37;;
11865;SDS011;5992;52.744;6.898;2023-05-14T09:31:07;8.53;;;5.20;;
11865;SDS011;5992;52.744;6.898;2023-05-14T09:34:22;5.57;;;4.43;;
11865;SDS011;5992;52.744;6.898;2023-05-14T09:37:56;8.87;;;5.07;;
11865;SDS011;5992;52.744;6.898;2023-05-14T09:41:11;4.87;;;4.33;;
11865;SDS011;5992;52.744;6.898;2023-05-14T09:44:39;6.95;;;4.65;;
11865;SDS011;5992;52.744;6.898;2023-05-14T09:47:43;8.33;;;4.40;;
11865;SDS011;5992;52.744;6.898;2023-05-14T09:51:00;4.60;;;4.20;;
11865;SDS011;5992;52.744;6.898;2023-05-14T09:54:06;5.67;;;4.07;;
11865;SDS011;5992;52.744;6.898;2023-05-14T09:57:36;6.27;;;4.57;;
11865;SDS011;5992;52.744;6.898;2023-05-14T10:00:41;5.10;;;4.05;;
11865;SDS011;5992;52.744;6.898;2023-05-14T10:04:10;3.87;;;3.57;;
11865;SDS011;5992;52.744;6.898;2023-05-14T10:07:28;5.10;;;3.97;;
11865;SDS011;5992;52.744;6.898;2023-05-14T10:10:59;4.67;;;4.13;;
11865;SDS011;5992;52.744;6.898;2023-05-14T10:14:16;6.03;;;4.13;;
11865;SDS011;5992;52.744;6.898;2023-05-14T10:17:46;4.93;;;3.93;;
11865;SDS011;5992;52.744;6.898;2023-05-14T10:21:04;4.47;;;3.90;;
11865;SDS011;5992;52.744;6.898;2023-05-14T10:24:35;4.37;;;3.97;;
11865;SDS011;5992;52.744;6.898;2023-05-14T10:27:54;5.65;;;3.70;;
11865;SDS011;5992;52.744;6.898;2023-05-14T10:34:42;3.80;;;3.20;;
11865;SDS011;5992;52.744;6.898;2023-05-14T10:37:58;5.10;;;3.20;;
11865;SDS011;5992;52.744;6.898;2023-05-14T10:41:03;3.60;;;3.30;;
11865;SDS011;5992;52.744;6.898;2023-05-14T10:44:32;3.90;;;3.60;;
11865;SDS011;5992;52.744;6.898;2023-05-14T10:47:50;3.80;;;3.47;;
11865;SDS011;5992;52.744;6.898;2023-05-14T10:51:10;3.40;;;3.13;;
11865;SDS011;5992;52.744;6.898;2023-05-14T10:54:26;3.90;;;3.13;;
11865;SDS011;5992;52.744;6.898;2023-05-14T10:57:57;3.80;;;3.10;;
11865;SDS011;5992;52.744;6.898;2023-05-14T11:01:14;3.70;;;3.40;;
11865;SDS011;5992;52.744;6.898;2023-05-14T11:04:49;3.63;;;3.33;;
11865;SDS011;5992;52.744;6.898;2023-05-14T11:08:07;3.50;;;3.20;;
11865;SDS011;5992;52.744;6.898;2023-05-14T11:11:23;4.40;;;4.10;;
11865;SDS011;5992;52.744;6.898;2023-05-14T11:14:39;4.80;;;4.30;;
11865;SDS011;5992;52.744;6.898;2023-05-14T11:18:09;5.67;;;4.83;;
11865;SDS011;5992;52.744;6.898;2023-05-14T11:21:24;5.63;;;3.70;;
11865;SDS011;5992;52.744;6.898;2023-05-14T11:24:40;5.67;;;5.10;;
11865;SDS011;5992;52.744;6.898;2023-05-14T11:27:45;6.23;;;4.23;;
11865;SDS011;5992;52.744;6.898;2023-05-14T11:31:12;7.20;;;4.80;;
11865;SDS011;5992;52.744;6.898;2023-05-14T11:34:30;4.60;;;4.20;;
11865;SDS011;5992;52.744;6.898;2023-05-14T11:38:02;4.43;;;4.03;;
11865;SDS011;5992;52.744;6.898;2023-05-14T11:41:05;4.70;;;4.10;;
11865;SDS011;5992;52.744;6.898;2023-05-14T11:47:51;4.27;;;3.77;;
11865;SDS011;5992;52.744;6.898;2023-05-14T11:54:25;4.20;;;3.85;;
11865;SDS011;5992;52.744;6.898;2023-05-14T12:04:18;3.90;;;3.60;;
11865;SDS011;5992;52.744;6.898;2023-05-14T12:07:34;3.40;;;3.10;;
11865;SDS011;5992;52.744;6.898;2023-05-14T12:11:04;3.40;;;3.10;;
11865;SDS011;5992;52.744;6.898;2023-05-14T15:24:31;2.50;;;2.30;;
11865;SDS011;5992;52.744;6.898;2023-05-14T15:31:05;3.90;;;2.80;;
11865;SDS011;5992;52.744;6.898;2023-05-14T15:34:36;2.50;;;2.30;;
11865;SDS011;5992;52.744;6.898;2023-05-14T15:37:41;3.70;;;2.50;;
11865;SDS011;5992;52.744;6.898;2023-05-14T15:41:13;2.80;;;2.50;;
11865;SDS011;5992;52.744;6.898;2023-05-14T15:44:31;5.00;;;2.70;;
11865;SDS011;5992;52.744;6.898;2023-05-14T15:47:50;2.20;;;2.10;;
11865;SDS011;5992;52.744;6.898;2023-05-14T15:50:54;7.70;;;2.95;;
11865;SDS011;5992;52.744;6.898;2023-05-14T15:54:10;2.80;;;2.60;;
11865;SDS011;5992;52.744;6.898;2023-05-14T15:57:16;2.85;;;2.65;;
11865;SDS011;5992;52.744;6.898;2023-05-14T16:04:04;2.70;;;2.50;;
11865;SDS011;5992;52.744;6.898;2023-05-14T16:07:08;2.77;;;2.50;;
11865;SDS011;5992;52.744;6.898;2023-05-14T16:10:41;2.97;;;2.77;;
11865;SDS011;5992;52.744;6.898;2023-05-14T16:13:59;4.55;;;2.40;;
11865;SDS011;5992;52.744;6.898;2023-05-14T16:17:29;4.07;;;2.37;;
11865;SDS011;5992;52.744;6.898;2023-05-14T16:20:45;2.75;;;2.50;;
11865;SDS011;5992;52.744;6.898;2023-05-14T16:24:05;2.40;;;2.20;;
11865;SDS011;5992;52.744;6.898;2023-05-14T16:27:20;3.90;;;3.27;;
11865;SDS011;5992;52.744;6.898;2023-05-14T16:30:50;4.23;;;2.17;;
11865;SDS011;5992;52.744;6.898;2023-05-14T16:34:08;2.60;;;2.30;;
11865;SDS011;5992;52.744;6.898;2023-05-14T16:37:24;2.83;;;2.50;;
11865;SDS011;5992;52.744;6.898;2023-05-14T16:40:28;2.80;;;2.60;;
11865;SDS011;5992;52.744;6.898;2023-05-14T16:43:36;2.90;;;2.70;;
11865;SDS011;5992;52.744;6.898;2023-05-14T16:46:42;4.30;;;2.33;;
11865;SDS011;5992;52.744;6.898;2023-05-14T16:50:15;8.33;;;2.50;;
11865;SDS011;5992;52.744;6.898;2023-05-14T16:53:19;2.30;;;2.20;;
11865;SDS011;5992;52.744;6.898;2023-05-14T16:56:38;3.53;;;2.60;;
11865;SDS011;5992;52.744;6.898;2023-05-14T16:59:54;4.20;;;3.57;;
11865;SDS011;5992;52.744;6.898;2023-05-14T17:03:15;3.33;;;2.67;;
11865;SDS011;5992;52.744;6.898;2023-05-14T17:06:30;3.33;;;2.50;;
11865;SDS011;5992;52.744;6.898;2023-05-14T17:09:46;2.10;;;2.00;;
11865;SDS011;5992;52.744;6.898;2023-05-14T17:12:51;3.03;;;2.33;;
11865;SDS011;5992;52.744;6.898;2023-05-14T17:16:22;4.03;;;2.60;;
11865;SDS011;5992;52.744;6.898;2023-05-14T17:19:28;6.50;;;2.57;;
11865;SDS011;5992;52.744;6.898;2023-05-14T17:23:00;2.70;;;2.50;;
11865;SDS011;5992;52.744;6.898;2023-05-14T17:26:04;2.70;;;2.43;;
11865;SDS011;5992;52.744;6.898;2023-05-14T17:29:22;5.07;;;2.30;;
11865;SDS011;5992;52.744;6.898;2023-05-14T17:32:39;2.90;;;2.70;;
11865;SDS011;5992;52.744;6.898;2023-05-14T17:36:00;9.53;;;3.27;;
11865;SDS011;5992;52.744;6.898;2023-05-14T17:39:19;7.07;;;2.97;;
11865;SDS011;5992;52.744;6.898;2023-05-14T17:42:38;2.83;;;2.63;;
11865;SDS011;5992;52.744;6.898;2023-05-14T17:45:42;3.27;;;2.80;;
11865;SDS011;5992;52.744;6.898;2023-05-14T17:49:01;6.53;;;2.63;;
11865;SDS011;5992;52.744;6.898;2023-05-14T17:52:18;2.50;;;2.30;;
11865;SDS011;5992;52.744;6.898;2023-05-14T17:55:46;2.73;;;2.53;;
11865;SDS011;5992;52.744;6.898;2023-05-14T17:58:50;3.27;;;2.77;;
11865;SDS011;5992;52.744;6.898;2023-05-14T18:02:11;2.93;;;2.73;;
11865;SDS011;5992;52.744;6.898;2023-05-14T18:05:30;2.50;;;2.30;;
11865;SDS011;5992;52.744;6.898;2023-05-14T18:08:35;4.90;;;2.40;;
11865;SDS011;5992;52.744;6.898;2023-05-14T18:12:03;3.20;;;2.95;;
11865;SDS011;5992;52.744;6.898;2023-05-14T18:15:07;3.63;;;2.70;;
11865;SDS011;5992;52.744;6.898;2023-05-14T18:18:23;5.37;;;3.20;;
11865;SDS011;5992;52.744;6.898;2023-05-14T18:21:27;3.43;;;2.63;;
11865;SDS011;5992;52.744;6.898;2023-05-14T18:24:44;4.55;;;2.90;;
11865;SDS011;5992;52.744;6.898;2023-05-14T18:28:04;2.93;;;2.73;;
11865;SDS011;5992;52.744;6.898;2023-05-14T18:31:23;5.90;;;3.20;;
11865;SDS011;5992;52.744;6.898;2023-05-14T18:34:27;4.90;;;3.00;;
11865;SDS011;5992;52.744;6.898;2023-05-14T18:37:46;3.63;;;3.37;;
11865;SDS011;5992;52.744;6.898;2023-05-14T18:40:51;3.83;;;3.47;;
11865;SDS011;5992;52.744;6.898;2023-05-14T18:44:22;3.77;;;3.13;;
11865;SDS011;5992;52.744;6.898;2023-05-14T18:47:26;4.23;;;3.30;;
11865;SDS011;5992;52.744;6.898;2023-05-14T18:50:57;4.43;;;3.53;;
11865;SDS011;5992;52.744;6.898;2023-05-14T18:54:16;3.23;;;3.03;;
11865;SDS011;5992;52.744;6.898;2023-05-14T18:57:35;5.07;;;4.50;;
11865;SDS011;5992;52.744;6.898;2023-05-14T19:00:54;6.40;;;4.83;;
11865;SDS011;5992;52.744;6.898;2023-05-14T19:04:14;6.40;;;5.80;;
11865;SDS011;5992;52.744;6.898;2023-05-14T19:07:18;7.13;;;6.43;;
11865;SDS011;5992;52.744;6.898;2023-05-14T19:10:48;10.00;;;6.30;;
11865;SDS011;5992;52.744;6.898;2023-05-14T19:13:53;9.73;;;7.00;;
11865;SDS011;5992;52.744;6.898;2023-05-14T19:17:24;7.90;;;6.87;;
11865;SDS011;5992;52.744;6.898;2023-05-14T19:20:29;9.27;;;7.90;;
11865;SDS011;5992;52.744;6.898;2023-05-14T19:23:46;12.27;;;8.57;;
11865;SDS011;5992;52.744;6.898;2023-05-14T19:26:50;7.85;;;7.05;;
11865;SDS011;5992;52.744;6.898;2023-05-14T19:30:12;12.20;;;8.00;;
11865;SDS011;5992;52.744;6.898;2023-05-14T19:33:32;9.23;;;8.13;;
11865;SDS011;5992;52.744;6.898;2023-05-14T19:36:54;8.57;;;7.77;;
11865;SDS011;5992;52.744;6.898;2023-05-14T19:40:28;11.63;;;8.87;;
11865;SDS011;5992;52.744;6.898;2023-05-14T19:44:06;9.25;;;8.10;;
11865;SDS011;5992;52.744;6.898;2023-05-14T19:47:12;11.07;;;8.23;;
11865;SDS011;5992;52.744;6.898;2023-05-14T19:50:47;10.97;;;8.70;;
11865;SDS011;5992;52.744;6.898;2023-05-14T19:53:51;9.80;;;8.00;;
11865;SDS011;5992;52.744;6.898;2023-05-14T19:57:15;12.00;;;8.73;;
11865;SDS011;5992;52.744;6.898;2023-05-14T20:00:34;9.53;;;8.13;;
11865;SDS011;5992;52.744;6.898;2023-05-14T20:04:09;9.07;;;8.20;;
11865;SDS011;5992;52.744;6.898;2023-05-14T20:07:27;9.30;;;8.40;;
11865;SDS011;5992;52.744;6.898;2023-05-14T20:10:49;14.50;;;9.33;;
11865;SDS011;5992;52.744;6.898;2023-05-14T20:13:53;9.83;;;8.80;;
11865;SDS011;5992;52.744;6.898;2023-05-14T20:17:12;10.33;;;9.13;;
11865;SDS011;5992;52.744;6.898;2023-05-14T20:20:18;10.47;;;8.70;;
11865;SDS011;5992;52.744;6.898;2023-05-14T20:23:49;10.80;;;9.10;;
11865;SDS011;5992;52.744;6.898;2023-05-14T20:26:56;16.83;;;10.57;;
11865;SDS011;5992;52.744;6.898;2023-05-14T20:30:15;13.77;;;10.13;;
11865;SDS011;5992;52.744;6.898;2023-05-14T20:33:19;12.83;;;9.20;;
11865;SDS011;5992;52.744;6.898;2023-05-14T20:36:40;11.40;;;10.20;;
11865;SDS011;5992;52.744;6.898;2023-05-14T20:39:56;12.95;;;9.60;;
11865;SDS011;5992;52.744;6.898;2023-05-14T20:43:30;12.63;;;10.63;;
11865;SDS011;5992;52.744;6.898;2023-05-14T20:46:34;11.47;;;9.67;;
11865;SDS011;5992;52.744;6.898;2023-05-14T20:49:50;13.27;;;10.90;;
11865;SDS011;5992;52.744;6.898;2023-05-14T20:52:56;13.43;;;12.03;;
11865;SDS011;5992;52.744;6.898;2023-05-14T20:56:29;12.85;;;10.65;;
11865;SDS011;5992;52.744;6.898;2023-05-14T20:59:46;13.90;;;11.03;;
11865;SDS011;5992;52.744;6.898;2023-05-14T21:03:17;12.73;;;10.27;;
11865;SDS011;5992;52.744;6.898;2023-05-14T21:06:21;14.53;;;11.00;;
11865;SDS011;5992;52.744;6.898;2023-05-14T21:09:42;12.93;;;9.97;;
11865;SDS011;5992;52.744;6.898;2023-05-14T21:12:57;11.20;;;10.10;;
11865;SDS011;5992;52.744;6.898;2023-05-14T21:16:14;12.47;;;11.00;;
11865;SDS011;5992;52.744;6.898;2023-05-14T21:19:18;13.77;;;11.53;;
11865;SDS011;5992;52.744;6.898;2023-05-14T21:22:37;13.67;;;10.87;;
11865;SDS011;5992;52.744;6.898;2023-05-14T21:25:43;15.50;;;11.10;;
11865;SDS011;5992;52.744;6.898;2023-05-14T21:29:16;14.10;;;12.00;;
11865;SDS011;5992;52.744;6.898;2023-05-14T21:32:34;13.70;;;11.23;;
11865;SDS011;5992;52.744;6.898;2023-05-14T21:35:53;16.83;;;14.00;;
11865;SDS011;5992;52.744;6.898;2023-05-14T21:38:57;14.37;;;11.33;;
11865;SDS011;5992;52.744;6.898;2023-05-14T21:42:27;14.57;;;12.83;;
11865;SDS011;5992;52.744;6.898;2023-05-14T21:45:45;16.70;;;12.70;;
11865;SDS011;5992;52.744;6.898;2023-05-14T21:49:01;19.87;;;15.13;;
11865;SDS011;5992;52.744;6.898;2023-05-14T21:52:05;19.23;;;14.77;;
11865;SDS011;5992;52.744;6.898;2023-05-14T21:55:36;17.15;;;14.50;;
11865;SDS011;5992;52.744;6.898;2023-05-14T21:58:54;17.15;;;14.20;;
11865;SDS011;5992;52.744;6.898;2023-05-14T22:02:24;17.10;;;13.93;;
11865;SDS011;5992;52.744;6.898;2023-05-14T22:05:43;20.63;;;15.67;;
11865;SDS011;5992;52.744;6.898;2023-05-14T22:08:49;19.40;;;14.67;;
11865;SDS011;5992;52.744;6.898;2023-05-14T22:12:08;20.53;;;14.77;;
11865;SDS011;5992;52.744;6.898;2023-05-14T22:15:14;18.50;;;15.45;;
11865;SDS011;5992;52.744;6.898;2023-05-14T22:18:44;17.00;;;14.50;;
11865;SDS011;5992;52.744;6.898;2023-05-14T22:21:48;21.00;;;15.20;;
11865;SDS011;5992;52.744;6.898;2023-05-14T22:25:08;19.87;;;15.63;;
11865;SDS011;5992;52.744;6.898;2023-05-14T22:28:26;19.63;;;14.83;;
11865;SDS011;5992;52.744;6.898;2023-05-14T22:31:47;18.60;;;15.27;;
11865;SDS011;5992;52.744;6.898;2023-05-14T22:35:05;20.80;;;15.15;;
11865;SDS011;5992;52.744;6.898;2023-05-14T22:38:24;19.15;;;16.00;;
11865;SDS011;5992;52.744;6.898;2023-05-14T22:41:28;20.23;;;16.03;;
11865;SDS011;5992;52.744;6.898;2023-05-14T22:44:45;20.47;;;15.80;;
11865;SDS011;5992;52.744;6.898;2023-05-14T22:47:50;20.40;;;16.43;;
11865;SDS011;5992;52.744;6.898;2023-05-14T22:51:21;18.80;;;15.53;;
11865;SDS011;5992;52.744;6.898;2023-05-14T22:54:24;18.80;;;15.03;;
11865;SDS011;5992;52.744;6.898;2023-05-14T22:57:42;19.80;;;15.73;;
11865;SDS011;5992;52.744;6.898;2023-05-14T23:00:58;19.70;;;15.87;;
11865;SDS011;5992;52.744;6.898;2023-05-14T23:04:16;20.00;;;16.10;;
11865;SDS011;5992;52.744;6.898;2023-05-14T23:07:31;19.07;;;14.73;;
11865;SDS011;5992;52.744;6.898;2023-05-14T23:11:03;20.10;;;15.13;;
11865;SDS011;5992;52.744;6.898;2023-05-14T23:14:07;18.37;;;15.67;;
11865;SDS011;5992;52.744;6.898;2023-05-14T23:17:27;20.20;;;15.40;;
11865;SDS011;5992;52.744;6.898;2023-05-14T23:20:44;24.17;;;15.40;;
11865;SDS011;5992;52.744;6.898;2023-05-14T23:24:15;22.07;;;16.13;;
11865;SDS011;5992;52.744;6.898;2023-05-14T23:27:19;21.20;;;17.10;;
11865;SDS011;5992;52.744;6.898;2023-05-14T23:30:35;21.53;;;16.87;;
11865;SDS011;5992;52.744;6.898;2023-05-14T23:33:39;20.87;;;15.50;;